Time;durP1;ratioP1;P1;durP2;ratioP2;P2;SDS_P1;SDS_P2;PMS_P1;PMS_P2;Temp;Humidity;BMP_temperature;BMP_pressure;BME280_temperature;BME280_humidity;BME280_pressure;Samples;Min_cycle;Max_cycle;Signal;HPM_P1;HPM_P2
2022/08/13 00:01:36;;;;;;;3.20;2.70;;;28.90;29.80;;;;;;5044412;28;20466;-72
2022/08/13 00:04:14;;;;;;;2.40;2.20;;;28.90;29.60;;;;;;5064119;28;20472;-72
2022/08/13 00:09:44;;;;;;;1.60;1.50;;;28.90;29.70;;;;;;5062401;28;20945;-72
2022/08/13 00:15:08;;;;;;;2.00;1.90;;;28.90;29.80;;;;;;5044582;28;20450;-72
2022/08/13 00:17:42;;;;;;;2.23;2.07;;;28.80;29.60;;;;;;5037957;28;20525;-72
2022/08/13 00:20:39;;;;;;;2.70;2.50;;;28.80;29.70;;;;;;5058261;28;20478;-72
2022/08/13 00:23:13;;;;;;;2.77;2.57;;;28.80;29.60;;;;;;5065874;28;20453;-72
2022/08/13 00:25:51;;;;;;;2.37;2.27;;;28.80;29.50;;;;;;5067351;28;20500;-72
2022/08/13 00:28:23;;;;;;;2.60;2.40;;;28.80;29.50;;;;;;5039114;28;20538;-72
2022/08/13 00:30:52;;;;;;;2.47;2.27;;;28.80;29.60;;;;;;5062310;28;20897;-72
2022/08/13 00:33:23;;;;;;;2.20;2.00;;;28.80;29.70;;;;;;5036472;28;20925;-72
2022/08/13 00:36:13;;;;;;;3.00;2.80;;;28.80;29.60;;;;;;5046356;28;20985;-72
2022/08/13 00:39:02;;;;;;;2.70;2.50;;;28.80;29.80;;;;;;5050030;28;20503;-72
2022/08/13 00:41:39;;;;;;;2.13;1.93;;;28.80;29.70;;;;;;5048817;28;20558;-72
2022/08/13 00:44:31;;;;;;;2.50;2.30;;;28.80;29.80;;;;;;5056851;28;20485;-72
2022/08/13 00:49:47;;;;;;;2.37;2.17;;;28.80;29.90;;;;;;5044275;28;20454;-72
2022/08/13 00:52:31;;;;;;;2.40;2.00;;;28.80;30.00;;;;;;5042349;28;20455;-72
2022/08/13 00:55:01;;;;;;;2.37;2.17;;;28.70;31.10;;;;;;5048480;28;20443;-72
2022/08/13 00:57:30;;;;;;;3.30;2.20;;;28.70;29.80;;;;;;5049856;28;20430;-72
2022/08/13 01:02:52;;;;;;;2.53;2.33;;;28.70;29.70;;;;;;4914409;29;20489;-67
2022/08/13 01:05:25;;;;;;;2.47;2.27;;;28.70;29.60;;;;;;4905683;29;20442;-67
2022/08/13 01:08:01;;;;;;;2.90;2.20;;;28.70;29.70;;;;;;4903495;29;20845;-67
2022/08/13 01:10:35;;;;;;;2.53;2.33;;;28.70;29.70;;;;;;4925512;29;20491;-67
2022/08/13 01:13:11;;;;;;;1.70;1.60;;;28.70;29.80;;;;;;4923176;29;20814;-67
2022/08/13 01:15:41;;;;;;;2.50;1.80;;;28.70;30.00;;;;;;4910741;29;20938;-67
2022/08/13 01:18:24;;;;;;;2.40;2.20;;;28.70;29.80;;;;;;4920735;29;20441;-67
2022/08/13 01:21:08;;;;;;;2.50;2.30;;;28.70;29.90;;;;;;4922487;29;20464;-67
2022/08/13 01:23:44;;;;;;;2.27;2.17;;;28.70;29.80;;;;;;4921329;29;20465;-67
2022/08/13 01:26:32;;;;;;;2.20;2.03;;;28.70;29.80;;;;;;4919907;29;21065;-67
2022/08/13 01:29:08;;;;;;;2.60;2.40;;;28.70;29.90;;;;;;4918923;29;20797;-67
2022/08/13 01:31:41;;;;;;;2.17;2.03;;;28.70;29.90;;;;;;4923687;29;20477;-67
2022/08/13 01:34:13;;;;;;;2.30;2.10;;;28.70;30.10;;;;;;4902693;29;20448;-67
2022/08/13 01:36:54;;;;;;;2.27;1.80;;;28.60;29.90;;;;;;4908278;29;20492;-67
2022/08/13 01:39:27;;;;;;;2.70;2.43;;;28.60;29.90;;;;;;4924523;29;20747;-67
2022/08/13 01:42:07;;;;;;;2.43;2.23;;;28.60;29.90;;;;;;4922089;29;20671;-67
2022/08/13 01:44:37;;;;;;;3.80;2.00;;;28.60;30.00;;;;;;4912812;29;20533;-67
2022/08/13 01:50:33;;;;;;;2.30;2.10;;;28.60;30.00;;;;;;4899409;29;20984;-66
2022/08/13 01:53:05;;;;;;;2.40;2.20;;;28.60;29.90;;;;;;4922424;29;20439;-67
2022/08/13 01:55:40;;;;;;;2.30;2.10;;;28.60;30.00;;;;;;4922956;29;20465;-67
2022/08/13 01:58:30;;;;;;;2.50;2.27;;;28.60;30.00;;;;;;4921184;29;20449;-67
2022/08/13 02:01:05;;;;;;;2.47;2.27;;;28.60;30.20;;;;;;4903971;29;20580;-67
2022/08/13 02:03:47;;;;;;;2.30;2.10;;;28.60;30.00;;;;;;4907964;29;20555;-66
2022/08/13 02:06:21;;;;;;;2.03;1.93;;;28.60;30.20;;;;;;4914062;29;20473;-67
2022/08/13 02:08:59;;;;;;;2.03;1.83;;;28.60;30.00;;;;;;4925951;29;20445;-67
2022/08/13 02:11:31;;;;;;;3.90;2.27;;;28.60;30.20;;;;;;4905527;29;20510;-67
2022/08/13 02:14:03;;;;;;;2.27;2.17;;;28.60;30.00;;;;;;4925994;29;20945;-67
2022/08/13 02:16:35;;;;;;;2.10;2.00;;;28.60;30.00;;;;;;4928202;29;20889;-66
2022/08/13 02:19:06;;;;;;;2.40;2.20;;;28.50;30.00;;;;;;4911677;29;20445;-65
2022/08/13 02:21:55;;;;;;;2.50;2.30;;;28.50;30.20;;;;;;4908193;29;20482;-67
2022/08/13 02:24:29;;;;;;;1.83;1.73;;;28.50;30.40;;;;;;4922379;29;20538;-67
2022/08/13 02:26:59;;;;;;;3.17;2.97;;;28.50;30.50;;;;;;4908092;29;20513;-67
2022/08/13 02:29:28;;;;;;;2.60;2.30;;;28.50;30.30;;;;;;4927805;29;20446;-67
2022/08/13 02:32:01;;;;;;;2.20;2.00;;;28.50;30.20;;;;;;4923971;28;20474;-66
2022/08/13 02:34:46;;;;;;;2.17;1.97;;;28.50;30.60;;;;;;4899896;29;20640;-67
2022/08/13 02:37:16;;;;;;;1.70;1.60;;;28.50;30.70;;;;;;4927619;29;20477;-67
2022/08/13 02:41:38;;;;;;;2.50;1.77;;;28.50;30.80;;;;;;4927975;29;20448;-66
2022/08/13 02:43:00;;;;;;;2.30;2.20;;;28.50;30.70;;;;;;4930424;29;20468;-68
2022/08/13 02:45:31;;;;;;;2.20;2.10;;;28.50;30.60;;;;;;4927342;29;21027;-67
2022/08/13 02:48:05;;;;;;;1.90;1.80;;;28.40;30.80;;;;;;4927707;29;20426;-67
2022/08/13 02:50:48;;;;;;;2.00;1.90;;;28.50;30.60;;;;;;4901707;29;20457;-67
2022/08/13 02:53:20;;;;;;;2.33;2.23;;;28.40;30.20;;;;;;4930034;29;20497;-68
2022/08/13 02:55:58;;;;;;;2.07;1.87;;;28.40;30.60;;;;;;4929175;29;20444;-67
2022/08/13 02:58:28;;;;;;;2.87;2.30;;;28.40;30.50;;;;;;4928190;29;20949;-66
2022/08/13 03:01:00;;;;;;;3.97;2.60;;;28.40;30.80;;;;;;4921547;29;20487;-67
2022/08/13 03:03:31;;;;;;;2.10;2.00;;;28.40;30.70;;;;;;4926774;29;20441;-67
2022/08/13 03:06:08;;;;;;;2.13;1.93;;;28.40;30.90;;;;;;4920952;29;20468;-67
2022/08/13 03:08:38;;;;;;;2.20;2.00;;;28.40;30.70;;;;;;4916830;29;20448;-67
2022/08/13 03:11:11;;;;;;;2.90;2.30;;;28.40;30.50;;;;;;4927746;28;20822;-68
2022/08/13 03:13:47;;;;;;;2.40;2.20;;;28.40;30.80;;;;;;4907490;29;20450;-67
2022/08/13 03:16:24;;;;;;;1.90;1.80;;;28.40;30.90;;;;;;4918803;28;20506;-67
2022/08/13 03:18:58;;;;;;;2.07;1.97;;;28.30;30.80;;;;;;4923626;29;20537;-67
2022/08/13 03:21:35;;;;;;;4.60;2.10;;;28.30;31.70;;;;;;4921364;29;20486;-67
2022/08/13 03:24:14;;;;;;;2.10;1.90;;;28.30;30.60;;;;;;4926781;29;20445;-66
2022/08/13 03:26:52;;;;;;;1.70;1.60;;;28.30;30.90;;;;;;4926027;28;20481;-67
2022/08/13 03:29:24;;;;;;;2.03;1.93;;;28.30;30.50;;;;;;4904893;29;20532;-67
2022/08/13 03:32:14;;;;;;;2.80;2.00;;;28.30;30.70;;;;;;4906233;29;20780;-66
2022/08/13 03:34:43;;;;;;;2.50;2.40;;;28.30;31.00;;;;;;4925442;29;20457;-66
2022/08/13 03:37:12;;;;;;;3.00;2.07;;;28.30;30.80;;;;;;4926891;29;20536;-66
2022/08/13 03:39:42;;;;;;;2.27;2.07;;;28.30;30.90;;;;;;4928182;29;20440;-66
2022/08/13 03:42:11;;;;;;;1.80;1.70;;;28.30;31.00;;;;;;4918703;29;20485;-66
2022/08/13 03:44:59;;;;;;;1.90;1.80;;;28.30;30.80;;;;;;4910066;29;20521;-66
2022/08/13 03:47:28;;;;;;;1.83;1.70;;;28.30;31.00;;;;;;4919759;29;20501;-67
2022/08/13 03:50:00;;;;;;;2.07;1.97;;;28.30;31.20;;;;;;4911848;29;20454;-67
2022/08/13 03:52:30;;;;;;;2.03;1.80;;;28.30;31.30;;;;;;4924342;29;20562;-66
2022/08/13 03:55:12;;;;;;;2.13;2.00;;;28.20;30.80;;;;;;4920553;29;20968;-67
2022/08/13 03:57:44;;;;;;;2.17;2.03;;;28.20;30.80;;;;;;4913303;29;20457;-66
2022/08/13 04:00:38;;;;;;;1.83;1.73;;;28.20;30.80;;;;;;4924765;29;20445;-67
2022/08/13 04:03:19;;;;;;;1.70;1.60;;;28.20;30.50;;;;;;4904068;29;20440;-67
2022/08/13 04:05:50;;;;;;;1.73;1.63;;;28.20;30.30;;;;;;4909249;29;20877;-66
2022/08/13 04:08:27;;;;;;;2.07;1.97;;;28.20;30.40;;;;;;4919637;29;20466;-66
2022/08/13 04:10:57;;;;;;;2.40;2.20;;;28.20;30.50;;;;;;4926119;29;20478;-67
2022/08/13 04:13:28;;;;;;;2.10;2.00;;;28.20;30.50;;;;;;4919311;29;20453;-66
2022/08/13 04:16:20;;;;;;;2.27;2.07;;;28.20;30.70;;;;;;4906052;29;20449;-66
2022/08/13 04:19:00;;;;;;;1.67;1.53;;;28.20;30.50;;;;;;4893905;29;20456;-66
2022/08/13 04:21:37;;;;;;;1.80;1.70;;;28.20;30.50;;;;;;4935997;28;20472;-66
2022/08/13 04:24:11;;;;;;;1.80;1.70;;;28.10;30.50;;;;;;4916671;29;20530;-66
2022/08/13 04:26:44;;;;;;;1.97;1.67;;;28.10;30.70;;;;;;4922772;29;20489;-67
2022/08/13 04:29:15;;;;;;;1.83;1.63;;;28.10;30.70;;;;;;4917828;29;20438;-67
2022/08/13 04:31:50;;;;;;;1.37;1.27;;;28.10;30.90;;;;;;4923842;28;20973;-67
2022/08/13 04:34:23;;;;;;;1.73;1.63;;;28.10;30.80;;;;;;4918826;29;20523;-66
2022/08/13 04:37:08;;;;;;;1.83;1.73;;;28.10;31.00;;;;;;4915863;29;20466;-66
2022/08/13 04:39:51;;;;;;;1.87;1.77;;;28.10;30.90;;;;;;4908855;29;20471;-67
2022/08/13 04:42:47;;;;;;;1.90;1.50;;;28.10;30.90;;;;;;4917266;29;21022;-67
2022/08/13 04:45:18;;;;;;;1.70;1.60;;;28.10;30.90;;;;;;4910472;29;20524;-67
2022/08/13 04:47:54;;;;;;;1.83;1.43;;;28.10;31.00;;;;;;4927355;29;20817;-68
2022/08/13 04:50:26;;;;;;;1.93;1.73;;;28.00;30.90;;;;;;4923875;29;20818;-67
2022/08/13 04:52:56;;;;;;;1.70;1.60;;;28.00;31.00;;;;;;4925450;29;20457;-67
2022/08/13 04:55:27;;;;;;;1.57;1.47;;;28.00;31.10;;;;;;4924240;29;20577;-68
2022/08/13 04:58:15;;;;;;;1.53;1.30;;;28.00;31.30;;;;;;4910201;29;20449;-69
2022/08/13 05:00:45;;;;;;;1.67;1.57;;;28.00;31.30;;;;;;4901240;29;20831;-69
2022/08/13 05:03:22;;;;;;;1.73;1.60;;;28.00;31.40;;;;;;4923391;29;20914;-69
2022/08/13 05:06:01;;;;;;;2.07;1.80;;;28.00;31.50;;;;;;4922089;29;20588;-69
2022/08/13 05:08:31;;;;;;;2.67;2.10;;;28.00;31.50;;;;;;4924452;29;20527;-68
2022/08/13 05:11:02;;;;;;;1.53;1.40;;;28.00;31.50;;;;;;4926436;29;20499;-69
2022/08/13 05:13:43;;;;;;;1.50;1.40;;;28.00;31.60;;;;;;4916799;29;20506;-69
2022/08/13 05:16:14;;;;;;;1.97;1.80;;;28.00;31.60;;;;;;4918830;28;20473;-68
2022/08/13 05:18:50;;;;;;;1.77;1.67;;;28.00;31.50;;;;;;4908577;29;20449;-68
2022/08/13 05:21:21;;;;;;;1.60;1.50;;;27.90;31.50;;;;;;4919979;29;20469;-69
2022/08/13 05:23:53;;;;;;;1.90;1.80;;;27.90;31.40;;;;;;4922486;29;20493;-69
2022/08/13 05:26:41;;;;;;;1.83;1.50;;;27.90;31.60;;;;;;4922613;29;21019;-69
2022/08/13 05:29:29;;;;;;;1.50;1.40;;;27.90;31.40;;;;;;4921495;29;20417;-67
2022/08/13 05:31:58;;;;;;;2.37;1.60;;;27.90;31.30;;;;;;4920547;29;20520;-68
2022/08/13 05:34:28;;;;;;;2.17;1.90;;;27.90;32.00;;;;;;4918707;29;20492;-67
2022/08/13 05:37:00;;;;;;;1.60;1.50;;;27.90;31.80;;;;;;4924757;28;20560;-66
2022/08/13 05:39:49;;;;;;;2.40;1.83;;;27.80;31.30;;;;;;4922290;29;20985;-68
2022/08/13 05:42:21;;;;;;;1.77;1.67;;;27.70;30.90;;;;;;4921984;29;20969;-68
2022/08/13 05:44:56;;;;;;;3.73;2.17;;;27.70;30.80;;;;;;4919581;29;20453;-68
2022/08/13 05:47:28;;;;;;;2.93;2.40;;;27.60;30.50;;;;;;4924731;29;20477;-66
2022/08/13 05:50:13;;;;;;;3.10;2.40;;;27.60;30.50;;;;;;4918762;29;20979;-69
2022/08/13 05:52:45;;;;;;;2.87;2.13;;;27.60;30.30;;;;;;4917967;29;20828;-68
2022/08/13 05:55:18;;;;;;;2.10;1.93;;;27.50;30.20;;;;;;4933075;29;20449;-66
2022/08/13 05:58:09;;;;;;;2.97;1.80;;;27.50;30.30;;;;;;4922132;29;20462;-68
2022/08/13 06:03:42;;;;;;;3.10;1.50;;;27.50;30.20;;;;;;4921082;29;20436;-68
2022/08/13 06:06:33;;;;;;;3.63;1.70;;;27.40;30.00;;;;;;4910509;29;20868;-68
2022/08/13 06:09:05;;;;;;;2.43;1.73;;;27.40;30.00;;;;;;4925864;29;20440;-67
2022/08/13 06:11:40;;;;;;;2.90;1.70;;;27.40;30.00;;;;;;4922393;28;20576;-68
2022/08/13 06:14:34;;;;;;;1.50;1.40;;;27.40;29.90;;;;;;4897509;29;20456;-68
2022/08/13 06:17:09;;;;;;;2.33;1.40;;;27.40;30.00;;;;;;4917489;29;20976;-68
2022/08/13 06:19:43;;;;;;;1.60;1.50;;;27.30;29.70;;;;;;4928918;29;21039;-68
2022/08/13 06:22:23;;;;;;;2.50;1.77;;;27.30;30.00;;;;;;4918651;29;20487;-68
2022/08/13 06:24:52;;;;;;;1.50;1.40;;;27.30;30.00;;;;;;4910000;29;20454;-67
2022/08/13 06:27:24;;;;;;;2.00;1.50;;;27.30;29.90;;;;;;4924028;29;20524;-68
2022/08/13 06:30:17;;;;;;;2.33;1.90;;;27.20;29.80;;;;;;4914525;29;20456;-68
2022/08/13 06:33:01;;;;;;;2.20;1.80;;;27.30;30.00;;;;;;4928215;29;20796;-66
2022/08/13 06:35:51;;;;;;;2.63;1.63;;;27.20;30.10;;;;;;4924986;29;20496;-66
2022/08/13 06:38:29;;;;;;;1.70;1.60;;;27.20;29.70;;;;;;4923493;29;20441;-68
2022/08/13 06:41:03;;;;;;;2.77;1.83;;;27.20;29.90;;;;;;4927513;29;20888;-68
2022/08/13 06:43:32;;;;;;;3.50;2.00;;;27.20;29.80;;;;;;4926571;29;20453;-68
2022/08/13 06:46:17;;;;;;;2.10;1.57;;;27.30;30.00;;;;;;4894189;29;20564;-68
2022/08/13 06:48:58;;;;;;;2.40;1.67;;;27.40;29.40;;;;;;4909445;29;20957;-68
2022/08/13 06:51:31;;;;;;;1.73;1.63;;;27.50;29.80;;;;;;4902573;29;20473;-67
2022/08/13 06:54:09;;;;;;;2.20;2.00;;;27.60;29.70;;;;;;4924281;29;20537;-67
2022/08/13 06:56:56;;;;;;;2.50;1.80;;;27.60;29.10;;;;;;4925589;29;20977;-67
2022/08/13 06:59:47;;;;;;;4.03;1.80;;;27.70;29.00;;;;;;4911600;29;20883;-67
2022/08/13 07:02:36;;;;;;;2.40;1.57;;;27.80;29.10;;;;;;4968442;23;21006;-70
2022/08/13 07:05:06;;;;;;;2.43;1.80;;;27.80;28.90;;;;;;4911173;29;20453;-70
2022/08/13 07:07:38;;;;;;;1.67;1.57;;;27.90;29.20;;;;;;4944671;28;20488;-70
2022/08/13 07:10:10;;;;;;;2.60;2.40;;;27.90;29.10;;;;;;4928906;28;20450;-70
2022/08/13 07:12:41;;;;;;;1.50;1.40;;;27.90;28.90;;;;;;4943744;28;20465;-70
2022/08/13 07:15:15;;;;;;;2.57;1.80;;;28.00;28.80;;;;;;4929327;29;20587;-70
2022/08/13 07:18:06;;;;;;;2.47;2.13;;;28.00;28.70;;;;;;4919303;29;20434;-70
2022/08/13 07:20:37;;;;;;;2.20;1.83;;;27.90;28.70;;;;;;4936462;28;20602;-70
2022/08/13 07:23:08;;;;;;;3.47;2.17;;;27.70;28.70;;;;;;4919047;29;20478;-70
2022/08/13 07:25:59;;;;;;;3.77;2.70;;;27.50;28.70;;;;;;4927976;29;20444;-70
2022/08/13 07:28:30;;;;;;;2.10;1.87;;;27.40;29.20;;;;;;4930553;28;20505;-70
2022/08/13 07:31:20;;;;;;;1.60;1.50;;;27.30;29.40;;;;;;4913638;29;20505;-70
2022/08/13 07:33:53;;;;;;;3.80;1.40;;;27.30;29.40;;;;;;4926444;29;20465;-70
2022/08/13 07:36:29;;;;;;;1.80;1.70;;;27.30;29.40;;;;;;4912650;29;21059;-70
2022/08/13 07:39:01;;;;;;;2.67;1.70;;;27.30;29.40;;;;;;4926804;29;20501;-70
2022/08/13 07:41:43;;;;;;;1.87;1.60;;;27.30;29.50;;;;;;4927015;29;20473;-70
2022/08/13 07:44:31;;;;;;;1.60;1.50;;;27.40;29.50;;;;;;4926794;29;20459;-70
2022/08/13 07:47:23;;;;;;;2.03;1.83;;;27.40;29.60;;;;;;4924843;29;20478;-70
2022/08/13 07:50:01;;;;;;;2.73;1.57;;;27.40;29.60;;;;;;4934663;28;20456;-70
2022/08/13 07:52:31;;;;;;;1.70;1.60;;;27.40;29.60;;;;;;4913410;29;20484;-70
2022/08/13 07:55:02;;;;;;;1.87;1.30;;;27.40;29.60;;;;;;4913404;29;20430;-70
2022/08/13 07:57:52;;;;;;;1.50;1.40;;;27.40;29.70;;;;;;4910992;29;20450;-70
2022/08/13 08:00:25;;;;;;;1.57;1.47;;;27.40;29.70;;;;;;4941331;29;20438;-70
2022/08/13 08:03:01;;;;;;;2.50;1.60;;;27.40;29.60;;;;;;4932335;29;20484;-70
2022/08/13 08:05:34;;;;;;;1.77;1.53;;;27.40;29.70;;;;;;4916749;29;20444;-70
2022/08/13 08:08:09;;;;;;;1.20;1.10;;;27.40;29.80;;;;;;4937867;29;21047;-70
2022/08/13 08:10:40;;;;;;;2.00;1.30;;;27.40;29.80;;;;;;4927365;29;20494;-70
2022/08/13 08:13:13;;;;;;;1.60;1.50;;;27.40;29.90;;;;;;4938953;29;20442;-70
2022/08/13 08:15:45;;;;;;;1.40;1.30;;;27.40;29.80;;;;;;4926053;29;20437;-70
2022/08/13 08:18:33;;;;;;;1.80;1.60;;;27.40;29.80;;;;;;4927782;29;20457;-70
2022/08/13 08:21:23;;;;;;;3.13;1.20;;;27.40;29.90;;;;;;4922131;28;20485;-70
2022/08/13 08:24:14;;;;;;;3.13;1.60;;;27.40;29.90;;;;;;4927624;29;20459;-70
2022/08/13 08:27:00;;;;;;;1.80;1.30;;;27.40;30.00;;;;;;4928936;29;20694;-70
2022/08/13 08:29:32;;;;;;;1.60;1.50;;;27.40;30.00;;;;;;4936881;28;20450;-70
2022/08/13 08:32:08;;;;;;;1.80;1.70;;;27.40;30.00;;;;;;4909660;29;20469;-70
2022/08/13 08:34:39;;;;;;;1.53;1.43;;;27.40;30.00;;;;;;4924734;29;20474;-70
2022/08/13 08:42:35;;;;;;;1.03;1.03;;;27.40;30.00;;;;;;4939555;28;20472;-70
2022/08/13 08:43:00;;;;;;;1.40;1.20;;;27.40;30.00;;;;;;4933165;28;20472;-65
2022/08/13 08:45:53;;;;;;;1.47;1.37;;;27.40;30.00;;;;;;4925635;29;21059;-65
2022/08/13 08:48:41;;;;;;;1.50;1.40;;;27.40;30.00;;;;;;4941072;28;21133;-65
2022/08/13 08:51:10;;;;;;;1.60;1.50;;;27.50;30.20;;;;;;4943792;29;20985;-65
2022/08/13 08:53:49;;;;;;;2.27;1.70;;;27.40;30.10;;;;;;4921267;29;21035;-65
2022/08/13 08:56:38;;;;;;;1.43;1.33;;;27.40;30.00;;;;;;4910251;28;20473;-65
2022/08/13 08:59:23;;;;;;;1.60;1.50;;;27.40;30.00;;;;;;4927449;29;20524;-65
2022/08/13 09:01:55;;;;;;;1.60;1.50;;;27.40;30.20;;;;;;4912996;29;20564;-65
2022/08/13 09:04:29;;;;;;;2.20;1.67;;;27.40;30.00;;;;;;4930769;28;20817;-65
2022/08/13 09:07:19;;;;;;;1.83;1.63;;;27.50;30.10;;;;;;4928412;29;20484;-65
2022/08/13 09:09:51;;;;;;;1.30;1.20;;;27.40;30.10;;;;;;4929957;28;20532;-65
2022/08/13 09:12:25;;;;;;;1.80;1.70;;;27.40;30.10;;;;;;4914348;29;21003;-65
2022/08/13 09:14:57;;;;;;;1.60;1.50;;;27.40;30.20;;;;;;4934133;28;20996;-65
2022/08/13 09:17:28;;;;;;;1.20;1.10;;;27.40;30.20;;;;;;4943620;29;20528;-65
2022/08/13 09:20:14;;;;;;;1.40;1.30;;;27.40;30.10;;;;;;4910712;29;21028;-65
2022/08/13 09:22:47;;;;;;;1.97;1.30;;;27.40;30.10;;;;;;4923520;29;20526;-65
2022/08/13 09:25:26;;;;;;;1.57;1.47;;;27.40;30.10;;;;;;4926510;29;20469;-64
2022/08/13 09:27:57;;;;;;;1.63;1.53;;;27.40;30.00;;;;;;4921866;29;20562;-65
2022/08/13 09:30:45;;;;;;;1.60;1.50;;;27.50;30.10;;;;;;4930143;29;20448;-65
2022/08/13 09:33:19;;;;;;;1.67;1.50;;;27.40;30.00;;;;;;4919810;29;20444;-65
2022/08/13 09:36:12;;;;;;;1.90;1.80;;;27.40;30.00;;;;;;4934820;28;20449;-65
2022/08/13 09:38:50;;;;;;;1.57;1.47;;;27.40;30.00;;;;;;4932115;29;20559;-65
2022/08/13 09:41:25;;;;;;;1.60;1.50;;;27.40;30.00;;;;;;4929759;29;20980;-65
2022/08/13 09:43:57;;;;;;;1.30;1.20;;;27.40;30.00;;;;;;4921417;29;20453;-65
2022/08/13 09:46:26;;;;;;;1.40;1.30;;;27.40;30.00;;;;;;4926084;28;20466;-65
2022/08/13 09:48:59;;;;;;;1.40;1.30;;;27.40;30.00;;;;;;4925597;28;20473;-65
2022/08/13 09:51:30;;;;;;;1.37;1.27;;;27.40;31.30;;;;;;4926132;28;20472;-64
2022/08/13 09:54:22;;;;;;;2.10;1.30;;;27.40;30.10;;;;;;4912250;29;20481;-65
2022/08/13 09:56:58;;;;;;;1.70;1.60;;;27.40;30.00;;;;;;4925564;29;20479;-65
2022/08/13 09:59:28;;;;;;;2.40;1.60;;;27.40;30.10;;;;;;4921081;29;20510;-64
2022/08/13 10:02:02;;;;;;;1.40;1.30;;;27.40;30.10;;;;;;4927853;28;20520;-65
2022/08/13 10:04:37;;;;;;;1.50;1.40;;;27.40;30.00;;;;;;4929009;29;20868;-65
2022/08/13 10:07:08;;;;;;;2.13;1.50;;;27.40;31.30;;;;;;4925482;29;20484;-64
2022/08/13 10:09:49;;;;;;;1.67;1.57;;;27.40;30.00;;;;;;4929928;29;20577;-65
2022/08/13 10:12:38;;;;;;;1.80;1.70;;;27.40;30.10;;;;;;4916167;29;20465;-65
2022/08/13 10:15:09;;;;;;;3.73;1.60;;;27.40;30.00;;;;;;4927450;29;20446;-65
2022/08/13 10:17:55;;;;;;;1.10;1.10;;;27.40;30.00;;;;;;4943679;29;20441;-65
2022/08/13 10:20:33;;;;;;;1.90;1.80;;;27.40;30.10;;;;;;4925449;29;20525;-65
2022/08/13 10:23:03;;;;;;;1.50;1.40;;;27.40;30.10;;;;;;4936280;28;20441;-65
2022/08/13 10:25:32;;;;;;;2.37;1.73;;;27.40;30.00;;;;;;4918584;29;20864;-66
2022/08/13 10:28:22;;;;;;;1.33;1.23;;;27.40;30.00;;;;;;4905920;29;20516;-65
2022/08/13 10:30:59;;;;;;;2.27;2.17;;;27.40;30.00;;;;;;4914878;29;20467;-66
2022/08/13 10:33:50;;;;;;;1.70;1.33;;;27.40;30.00;;;;;;4928223;29;20707;-65
2022/08/13 10:36:21;;;;;;;1.70;1.60;;;27.40;30.00;;;;;;4930162;28;20477;-65
2022/08/13 10:38:55;;;;;;;1.63;1.53;;;27.40;30.00;;;;;;4929814;28;20455;-65
2022/08/13 10:41:24;;;;;;;2.07;1.80;;;27.40;30.00;;;;;;4928962;29;20492;-65
2022/08/13 10:43:56;;;;;;;2.13;1.97;;;27.40;30.00;;;;;;4926199;29;20811;-64
2022/08/13 10:46:28;;;;;;;1.60;1.50;;;27.40;30.00;;;;;;4932520;29;21000;-65
2022/08/13 10:48:58;;;;;;;1.83;1.67;;;27.40;30.00;;;;;;4943799;28;20506;-65
2022/08/13 10:51:30;;;;;;;1.80;1.50;;;27.40;30.00;;;;;;4917274;29;20567;-65
2022/08/13 10:54:05;;;;;;;2.73;1.50;;;27.40;30.00;;;;;;4913891;29;20452;-64
2022/08/13 10:56:34;;;;;;;2.50;1.90;;;27.40;30.00;;;;;;4927226;29;20492;-65
2022/08/13 10:59:05;;;;;;;1.90;1.80;;;27.40;29.90;;;;;;4921459;29;20488;-64
2022/08/13 11:01:39;;;;;;;2.13;2.03;;;27.40;29.90;;;;;;4929120;29;21069;-65
2022/08/13 11:04:08;;;;;;;2.27;2.07;;;27.40;29.90;;;;;;4928222;29;20569;-65
2022/08/13 11:06:38;;;;;;;1.80;1.70;;;27.40;29.90;;;;;;4944374;28;20472;-65
2022/08/13 11:09:10;;;;;;;2.00;1.90;;;27.40;29.90;;;;;;4918761;29;20984;-65
2022/08/13 11:11:55;;;;;;;1.90;1.80;;;27.40;29.90;;;;;;4926871;29;20493;-65
2022/08/13 11:14:28;;;;;;;2.20;2.00;;;27.40;29.90;;;;;;4928284;29;20445;-65
2022/08/13 11:17:04;;;;;;;1.57;1.47;;;27.40;29.90;;;;;;4943147;29;20499;-65
2022/08/13 11:19:44;;;;;;;2.23;2.07;;;27.40;29.90;;;;;;4926801;29;20509;-65
2022/08/13 11:22:23;;;;;;;1.80;1.70;;;27.40;29.90;;;;;;4921553;29;20889;-65
2022/08/13 11:24:56;;;;;;;1.73;1.63;;;27.40;29.90;;;;;;4944014;29;20449;-65
2022/08/13 11:27:25;;;;;;;1.80;1.70;;;27.40;29.80;;;;;;4929689;29;20992;-64
2022/08/13 11:30:14;;;;;;;1.70;1.60;;;27.40;29.90;;;;;;4944400;29;20469;-65
2022/08/13 11:33:01;;;;;;;1.90;1.80;;;27.40;29.90;;;;;;4918105;29;20449;-64
2022/08/13 11:35:34;;;;;;;2.40;1.70;;;27.40;29.80;;;;;;4918768;29;20571;-65
2022/08/13 11:38:08;;;;;;;1.63;1.53;;;27.40;29.80;;;;;;4943866;29;20456;-65
2022/08/13 11:40:37;;;;;;;1.90;1.80;;;27.50;29.90;;;;;;4930394;29;20502;-65
2022/08/13 11:43:08;;;;;;;1.90;1.60;;;27.40;29.70;;;;;;4932142;29;20545;-65
2022/08/13 11:45:46;;;;;;;1.90;1.80;;;27.40;29.80;;;;;;4927592;29;20477;-65
2022/08/13 11:48:17;;;;;;;2.00;1.90;;;27.50;29.90;;;;;;4913457;29;20441;-65
2022/08/13 11:50:58;;;;;;;1.70;1.60;;;27.50;29.90;;;;;;4927542;29;20587;-65
2022/08/13 11:53:30;;;;;;;1.73;1.60;;;27.40;29.70;;;;;;4913195;29;20438;-65
2022/08/13 11:56:22;;;;;;;1.77;1.67;;;27.50;29.80;;;;;;4921814;29;20476;-65
2022/08/13 11:58:52;;;;;;;1.50;1.40;;;27.50;29.80;;;;;;4920414;29;20528;-65
2022/08/13 12:01:25;;;;;;;1.70;1.47;;;27.50;29.80;;;;;;4912146;29;20536;-65
2022/08/13 12:04:12;;;;;;;1.90;1.80;;;27.50;29.80;;;;;;4927172;29;20453;-65
2022/08/13 12:06:47;;;;;;;2.47;2.07;;;27.50;29.80;;;;;;4910465;29;20557;-65
2022/08/13 12:09:20;;;;;;;1.90;1.80;;;27.50;29.80;;;;;;4927747;29;20458;-64
2022/08/13 12:12:11;;;;;;;1.77;1.67;;;27.50;29.80;;;;;;4926767;29;20493;-64
2022/08/13 12:14:50;;;;;;;2.00;1.73;;;27.50;29.70;;;;;;4926791;29;20509;-68
2022/08/13 12:17:19;;;;;;;2.07;1.87;;;27.50;29.70;;;;;;4924198;29;20597;-65
2022/08/13 12:20:10;;;;;;;1.83;1.70;;;27.50;29.60;;;;;;4928295;28;20460;-64
2022/08/13 12:22:51;;;;;;;1.73;1.63;;;27.50;29.70;;;;;;4942119;28;20564;-64
2022/08/13 12:25:23;;;;;;;2.07;1.87;;;27.50;29.70;;;;;;4929495;29;20517;-67
2022/08/13 12:28:17;;;;;;;1.70;1.60;;;27.50;29.70;;;;;;4918268;29;20488;-66
2022/08/13 12:30:56;;;;;;;1.70;1.60;;;27.50;29.80;;;;;;4915964;29;20520;-64
2022/08/13 12:33:25;;;;;;;2.20;2.00;;;27.50;29.70;;;;;;4926991;29;20444;-65
2022/08/13 12:36:00;;;;;;;1.90;1.80;;;27.50;29.70;;;;;;4927354;29;20448;-65
2022/08/13 12:38:31;;;;;;;1.73;1.63;;;27.50;29.70;;;;;;4937250;29;20451;-65
2022/08/13 12:41:02;;;;;;;1.53;1.43;;;27.50;29.70;;;;;;4912230;29;20465;-65
2022/08/13 12:43:45;;;;;;;2.53;2.33;;;27.50;29.80;;;;;;4911981;29;20968;-65
2022/08/13 12:46:33;;;;;;;1.83;1.73;;;27.60;29.80;;;;;;4930758;29;20477;-64
2022/08/13 12:49:04;;;;;;;1.90;1.80;;;27.50;29.80;;;;;;4925933;28;20468;-65
2022/08/13 12:51:42;;;;;;;1.50;1.40;;;27.60;29.90;;;;;;4942538;28;20472;-65
2022/08/13 12:54:25;;;;;;;2.00;1.90;;;27.60;29.80;;;;;;4908405;29;20449;-66
2022/08/13 12:57:16;;;;;;;2.07;1.90;;;27.60;29.90;;;;;;4919605;29;21071;-64
2022/08/13 13:00:07;;;;;;;1.90;1.80;;;27.60;29.80;;;;;;4927361;29;20441;-65
2022/08/13 13:02:40;;;;;;;1.80;1.70;;;27.60;29.70;;;;;;4979825;23;20576;-66
2022/08/13 13:05:17;;;;;;;1.80;1.70;;;27.60;29.80;;;;;;4992922;28;20454;-66
2022/08/13 13:07:49;;;;;;;2.03;1.80;;;27.60;29.70;;;;;;4995787;28;20794;-66
2022/08/13 13:10:38;;;;;;;1.87;1.77;;;27.60;29.70;;;;;;4978936;28;20889;-66
2022/08/13 13:13:17;;;;;;;1.73;1.63;;;27.60;29.70;;;;;;4971940;28;20446;-72
2022/08/13 13:16:07;;;;;;;2.07;1.60;;;27.60;29.70;;;;;;4975855;28;20467;-72
2022/08/13 13:18:56;;;;;;;2.10;2.00;;;27.60;29.80;;;;;;4967251;28;20442;-66
2022/08/13 13:21:29;;;;;;;2.10;1.93;;;27.60;29.70;;;;;;4968375;28;20542;-66
2022/08/13 13:24:07;;;;;;;1.80;1.70;;;27.60;29.70;;;;;;4965948;28;20435;-66
2022/08/13 13:26:46;;;;;;;1.60;1.50;;;27.60;29.70;;;;;;4962099;28;21034;-66
2022/08/13 13:29:28;;;;;;;2.10;2.00;;;27.60;29.80;;;;;;4965687;28;21073;-66
2022/08/13 13:32:03;;;;;;;1.90;1.80;;;27.60;29.80;;;;;;4956895;28;20532;-66
2022/08/13 13:34:52;;;;;;;2.40;2.20;;;27.60;29.80;;;;;;4966390;28;20450;-66
2022/08/13 13:37:26;;;;;;;1.83;1.73;;;27.70;29.70;;;;;;4959541;28;20478;-66
2022/08/13 13:40:14;;;;;;;1.83;1.73;;;27.70;29.80;;;;;;4967094;28;20439;-66
2022/08/13 13:42:44;;;;;;;1.77;1.67;;;27.70;29.70;;;;;;4965971;28;20475;-66
2022/08/13 13:45:35;;;;;;;3.73;1.63;;;27.70;29.80;;;;;;4962021;28;20467;-66
2022/08/13 13:48:21;;;;;;;1.50;1.40;;;27.70;29.70;;;;;;4961030;28;20466;-66
2022/08/13 13:50:52;;;;;;;1.90;1.80;;;27.70;29.70;;;;;;4957958;28;20555;-66
2022/08/13 13:53:21;;;;;;;2.23;2.10;;;27.70;29.70;;;;;;4949972;28;20498;-65
2022/08/13 13:56:12;;;;;;;1.97;1.87;;;27.70;29.70;;;;;;4958308;28;20471;-66
2022/08/13 13:58:41;;;;;;;1.97;1.77;;;27.70;29.70;;;;;;4956760;28;20892;-66
2022/08/13 14:01:28;;;;;;;2.03;1.93;;;27.70;29.70;;;;;;4958833;28;20483;-66